MSC Rania — 3EEB3 — position and weather

sailwx.info

Track history (hours):
 
Tides and Currents Weather Stations Pressure Air Temp Water Temp Dewpoint Dewpoint Depression Visibility Wind Speed Wind Dir Waves Ship Positions

MSC Rania

Last reported at 2017-May-21 15:40 UTC. Time now 2017-May-22 17:33 UTC.
Position S 33°45' E 018°15'.

Length 332 m; draft 12.3 m.

Type: Ship (hazmat cat A). MMSI: 371752000.

Date/timePositionNaut miles runAvg speedWind from/ knotsBaromVisibWave heightAir tempDewpointWater temp
2017-May-21 15:40S 33°45' E 018°15'421.5
2017-May-21 15:29S 33°48' E 018°17'815.9
2017-May-21 15:00S 33°52' E 018°26'3 3.0
2017-May-21 13:58S 33°55' E 018°27'0 0.0
2017-May-21 13:28S 33°55' E 018°27'0 0.0
2017-May-21 12:55S 33°55' E 018°27'0 0.0
2017-May-21 12:28S 33°55' E 018°27'0 0.0
2017-May-21 11:58S 33°55' E 018°27'0 0.0
2017-May-21 11:28S 33°55' E 018°27'0 0.0
2017-May-21 10:58S 33°55' E 018°27'0 0.0
2017-May-21 10:28S 33°55' E 018°27'0 0.0
2017-May-21 09:55S 33°55' E 018°27'0 0.0
2017-May-21 09:28S 33°55' E 018°27'0 0.0
2017-May-21 08:58S 33°55' E 018°27'0 0.0
2017-May-21 08:25S 33°55' E 018°27'0 0.0
2017-May-21 07:49S 33°55' E 018°27'0 0.0
2017-May-21 07:28S 33°55' E 018°27'0 0.0
2017-May-21 06:55S 33°55' E 018°27'0 0.1
2017-May-21 06:28S 33°55' E 018°27'0 0.0
2017-May-21 05:58S 33°55' E 018°27'0 0.0
2017-May-21 05:25S 33°55' E 018°27'0 0.0
2017-May-21 04:58S 33°55' E 018°27'0 0.0
2017-May-21 04:28S 33°55' E 018°27'0 0.0
2017-May-21 03:58S 33°55' E 018°27'0 0.0
2017-May-21 03:25S 33°55' E 018°27'0 0.0
2017-May-21 02:58S 33°55' E 018°27'0 0.0
2017-May-21 02:22S 33°55' E 018°27'0 0.0
2017-May-21 01:58S 33°55' E 018°27'0 0.0
2017-May-21 01:28S 33°55' E 018°27'0 0.0
2017-May-21 00:55S 33°55' E 018°27'0 0.0
2017-May-21 00:28S 33°55' E 018°27'0 0.0
2017-May-21 00:01S 33°55' E 018°27'0 0.0
2017-May-20 23:21S 33°55' E 018°27'0 0.0
2017-May-20 23:00S 33°55' E 018°27'0 0.0
2017-May-20 22:30S 33°55' E 018°27'0 0.0
2017-May-20 22:00S 33°55' E 018°27'0 0.0
2017-May-20 21:30S 33°55' E 018°27'0 0.0
2017-May-20 20:57S 33°55' E 018°27'0 0.0
2017-May-20 20:30S 33°55' E 018°27'0 0.0
2017-May-20 20:00S 33°55' E 018°27'0 0.0
2017-May-20 19:30S 33°55' E 018°27'0 0.0
2017-May-20 19:00S 33°55' E 018°27'0 0.0
2017-May-20 18:30S 33°55' E 018°27'0 0.0
2017-May-20 17:54S 33°55' E 018°27'0 0.0
2017-May-20 17:27S 33°55' E 018°27'0 0.0
2017-May-20 16:57S 33°55' E 018°27'0 0.0
2017-May-20 16:30S 33°55' E 018°27'1 1.9
2017-May-20 15:59S 33°54' E 018°26'2 4.8
2017-May-20 15:30S 33°52' E 018°24'4 8.0
2017-May-20 14:59S 33°54' E 018°20'  
2017-May-17 13:18S 30°22' E 030°59'620.8
2017-May-17 13:00S 30°16' E 031°02'1020.6
2017-May-17 12:30S 30°06' E 031°06'1019.6
2017-May-17 12:00S 29°56' E 031°07'510.6
2017-May-17 11:30S 29°52' E 031°04'3 5.0
2017-May-17 11:00S 29°53' E 031°01'0 0.0
2017-May-17 10:18S 29°53' E 031°01'0 0.0
2017-May-17 10:00S 29°53' E 031°01'0 0.0
2017-May-17 09:30S 29°53' E 031°01'0 0.0
2017-May-17 08:48S 29°53' E 031°01'0 0.0
2017-May-17 08:30S 29°53' E 031°01'0 0.0
2017-May-17 08:00S 29°53' E 031°01'0 0.0
2017-May-17 07:30S 29°53' E 031°01'0 0.0
2017-May-17 07:00S 29°53' E 031°01'0 0.0
2017-May-17 06:30S 29°53' E 031°01'0 0.0
2017-May-17 06:00S 29°53' E 031°01'0 0.0
2017-May-17 05:30S 29°53' E 031°01'0 0.0
2017-May-17 05:00S 29°53' E 031°01'0 0.0
2017-May-17 04:30S 29°53' E 031°01'0 0.0
2017-May-17 04:00S 29°53' E 031°01'0 0.0
2017-May-17 03:30S 29°53' E 031°01'0 0.0
2017-May-17 02:54S 29°53' E 031°01'0 0.0
2017-May-17 02:30S 29°53' E 031°01'0 0.0
2017-May-17 02:00S 29°53' E 031°01'0 0.0
2017-May-17 01:30S 29°53' E 031°01'0 0.0
2017-May-17 01:00S 29°53' E 031°01'0 0.0
2017-May-17 00:30S 29°53' E 031°01'0 0.0
2017-May-17 00:00S 29°53' E 031°01'0 0.0
2017-May-16 23:30S 29°53' E 031°01'0 0.0
2017-May-16 23:00S 29°53' E 031°01'0 0.0
2017-May-16 22:30S 29°53' E 031°01'0 0.0
2017-May-16 21:59S 29°53' E 031°01'0 0.0
2017-May-16 21:29S 29°53' E 031°01'0 0.0
2017-May-16 20:59S 29°53' E 031°01'0 0.0
2017-May-16 20:29S 29°53' E 031°01'0 0.0
2017-May-16 19:59S 29°53' E 031°01'0 0.0
2017-May-16 19:29S 29°53' E 031°01'0 0.0
2017-May-16 18:59S 29°53' E 031°01'0 0.0
2017-May-16 18:29S 29°53' E 031°01'0 0.0
2017-May-16 17:59S 29°53' E 031°01'0 0.0
2017-May-16 17:29S 29°53' E 031°01'0 0.0
2017-May-16 16:59S 29°53' E 031°01'0 0.0
2017-May-16 16:20S 29°53' E 031°01'0 0.0
2017-May-16 15:59S 29°53' E 031°01'0 0.0
2017-May-16 15:29S 29°53' E 031°01'0 0.0
2017-May-16 14:59S 29°53' E 031°01'0 0.0
2017-May-16 14:29S 29°53' E 031°01'0 0.0
2017-May-16 13:29S 29°53' E 031°01'0 0.0
2017-May-16 12:59S 29°53' E 031°01'0 0.0
2017-May-16 12:29S 29°53' E 031°01'0 0.0
2017-May-16 11:59S 29°53' E 031°01'0 0.0
2017-May-16 11:29S 29°53' E 031°01'0 0.0
2017-May-16 10:59S 29°53' E 031°01'0 0.0
2017-May-16 10:29S 29°53' E 031°01'0 0.0
2017-May-16 09:59S 29°53' E 031°01'0 0.0
2017-May-16 09:29S 29°53' E 031°01'0 0.0
2017-May-16 08:59S 29°53' E 031°01'0 0.0
2017-May-16 08:23S 29°53' E 031°01'0 0.0
2017-May-16 07:59S 29°53' E 031°01'0 0.0
2017-May-16 07:29S 29°53' E 031°01'0 0.0
2017-May-16 06:29S 29°53' E 031°01'0 0.0
2017-May-16 05:41S 29°53' E 031°01'0 0.0
2017-May-16 05:23S 29°53' E 031°01'0 0.0
2017-May-16 04:59S 29°53' E 031°01'0 0.0
2017-May-16 04:29S 29°53' E 031°01'0 0.0
2017-May-16 03:59S 29°53' E 031°01'0 0.0
2017-May-16 03:29S 29°53' E 031°01'0 0.0
2017-May-16 02:59S 29°53' E 031°01'0 0.0
2017-May-16 02:29S 29°53' E 031°01'0 0.0
2017-May-16 01:59S 29°53' E 031°01'0 0.0
2017-May-16 01:29S 29°53' E 031°01'0 0.0
2017-May-16 00:59S 29°53' E 031°01'0 0.0
2017-May-16 00:29S 29°53' E 031°01'0 0.0
2017-May-15 23:59S 29°53' E 031°01'0 0.0
2017-May-15 23:29S 29°53' E 031°01'0 0.0
2017-May-15 22:59S 29°53' E 031°01'0 0.0
2017-May-15 22:29S 29°53' E 031°01'0 0.0
2017-May-15 21:59S 29°53' E 031°01'0 0.0
2017-May-15 21:29S 29°53' E 031°01'0 0.0
2017-May-15 20:59S 29°53' E 031°01'0 0.0
2017-May-15 20:29S 29°53' E 031°01'0 0.0
2017-May-15 19:59S 29°53' E 031°01'0 0.0
2017-May-15 19:29S 29°53' E 031°01'0 0.0
2017-May-15 18:59S 29°53' E 031°01'0 0.0
2017-May-15 18:29S 29°53' E 031°01'0 0.0
2017-May-15 17:59S 29°53' E 031°01'0 0.0
2017-May-15 17:23S 29°53' E 031°01'0 0.0
2017-May-15 16:59S 29°53' E 031°01'0 0.0
2017-May-15 16:29S 29°53' E 031°01'0 0.0
2017-May-15 15:59S 29°53' E 031°01'0 0.0
2017-May-15 15:29S 29°53' E 031°01'0 0.0
2017-May-15 14:59S 29°53' E 031°01'0 0.0
2017-May-15 14:23S 29°53' E 031°01'0 0.0
2017-May-15 13:29S 29°53' E 031°01'0 0.0
2017-May-15 12:59S 29°53' E 031°01'0 0.0
2017-May-15 12:29S 29°53' E 031°01'0 0.0
2017-May-15 11:53S 29°53' E 031°01'0 0.0
2017-May-15 11:29S 29°53' E 031°01'0 0.0
2017-May-15 10:59S 29°53' E 031°01'0 0.0
2017-May-15 10:28S 29°53' E 031°01'0 0.0
2017-May-15 09:46S 29°53' E 031°01'0 0.0
2017-May-15 09:22S 29°53' E 031°01'0 0.0
2017-May-15 08:58S 29°53' E 031°01'0 0.0
2017-May-15 08:28S 29°53' E 031°01'0 0.0
2017-May-15 07:58S 29°53' E 031°01'0 0.0
2017-May-15 07:28S 29°53' E 031°01'0 0.0
2017-May-15 06:58S 29°53' E 031°01'0 0.0
2017-May-15 06:28S 29°53' E 031°01'0 0.0
2017-May-15 05:58S 29°53' E 031°01'0 0.0
2017-May-15 05:28S 29°53' E 031°01'0 0.0
2017-May-15 04:58S 29°53' E 031°01'0 0.0
2017-May-15 04:28S 29°53' E 031°01'0 0.0
2017-May-15 03:58S 29°53' E 031°01'0 0.0
2017-May-15 03:28S 29°53' E 031°01'0 0.0
2017-May-15 02:58S 29°53' E 031°01'0 0.0
2017-May-15 02:28S 29°53' E 031°01'0 0.0
2017-May-15 01:58S 29°53' E 031°01'0 0.0
2017-May-15 01:28S 29°53' E 031°01'0 0.0
2017-May-15 00:58S 29°53' E 031°01'0 0.0
2017-May-15 00:28S 29°53' E 031°01'0 0.0
2017-May-14 23:58S 29°53' E 031°01'0 0.0
2017-May-14 23:28S 29°53' E 031°01'0 0.0
2017-May-14 22:58S 29°53' E 031°01'0 0.0
2017-May-14 22:28S 29°53' E 031°01'0 0.0
2017-May-14 21:58S 29°53' E 031°01'0 0.0
2017-May-14 21:28S 29°53' E 031°01'0 0.0
2017-May-14 20:58S 29°53' E 031°01'0 0.0
2017-May-14 20:28S 29°53' E 031°01'0 0.0
2017-May-14 19:58S 29°53' E 031°01'0 0.0
2017-May-14 19:28S 29°53' E 031°01'0 0.0
2017-May-14 18:58S 29°53' E 031°01'0 0.0
2017-May-14 18:28S 29°53' E 031°01'0 0.0
2017-May-14 17:58S 29°53' E 031°01'0 0.0
2017-May-14 17:19S 29°53' E 031°01'0 0.0
2017-May-14 16:58S 29°53' E 031°01'0 0.0
2017-May-14 16:28S 29°53' E 031°01'0 0.0
2017-May-14 15:58S 29°53' E 031°01'0 0.0
2017-May-14 15:28S 29°53' E 031°01'0 0.0
2017-May-14 14:58S 29°53' E 031°01'0 0.0
2017-May-14 14:28S 29°53' E 031°01'0 0.0
2017-May-14 13:28S 29°53' E 031°01'0 0.0
2017-May-14 12:58S 29°53' E 031°01'0 0.0
2017-May-14 12:28S 29°53' E 031°01'0 0.0
2017-May-14 11:52S 29°53' E 031°01'0 0.0
2017-May-14 11:28S 29°53' E 031°01'0 0.0
2017-May-14 10:58S 29°53' E 031°01'0 0.0
2017-May-14 10:28S 29°53' E 031°01'0 0.0
2017-May-14 09:49S 29°53' E 031°01'0 0.0
2017-May-14 09:28S 29°53' E 031°01'0 0.0
2017-May-14 08:58S 29°53' E 031°01'0 0.0
2017-May-14 08:28S 29°53' E 031°01'0 0.0
2017-May-14 07:58S 29°53' E 031°01'0 0.0
2017-May-14 07:28S 29°53' E 031°01'0 0.0
2017-May-14 06:58S 29°53' E 031°01'0 0.0
2017-May-14 06:22S 29°53' E 031°01'0 0.0
2017-May-14 05:58S 29°53' E 031°01'0 0.0
2017-May-14 05:28S 29°53' E 031°01'0 0.0
2017-May-14 04:58S 29°53' E 031°01'0 0.0
2017-May-14 04:28S 29°53' E 031°01'0 0.0
2017-May-14 03:58S 29°53' E 031°01'0 0.0
2017-May-14 03:28S 29°53' E 031°01'0 0.0
2017-May-14 02:58S 29°53' E 031°01'0 0.0
2017-May-14 02:28S 29°53' E 031°01'0 0.0
2017-May-14 01:58S 29°53' E 031°01'0 0.0
2017-May-14 01:28S 29°53' E 031°01'0 0.0
2017-May-14 00:58S 29°53' E 031°01'0 0.0
2017-May-14 00:28S 29°53' E 031°01'0 0.0
2017-May-13 23:58S 29°53' E 031°01'0 0.0
2017-May-13 23:28S 29°53' E 031°01'0 0.0
2017-May-13 22:58S 29°53' E 031°01'0 0.0
2017-May-13 22:27S 29°53' E 031°01'0 0.0
2017-May-13 21:57S 29°53' E 031°01'0 0.0
2017-May-13 21:27S 29°53' E 031°01'0 0.0
2017-May-13 20:57S 29°53' E 031°01'0 0.0
2017-May-13 20:30S 29°53' E 031°01'0 0.0
2017-May-13 19:57S 29°53' E 031°01'0 0.0
2017-May-13 19:27S 29°53' E 031°01'0 0.0
2017-May-13 19:00S 29°53' E 031°01'0 0.0
2017-May-13 18:30S 29°53' E 031°01'0 0.0
2017-May-13 17:57S 29°53' E 031°01'0 0.0
2017-May-13 17:30S 29°53' E 031°01'0 0.0
2017-May-13 17:00S 29°53' E 031°01'0 0.0
2017-May-13 16:27S 29°53' E 031°01'0 0.0
2017-May-13 16:00S 29°53' E 031°01'0 0.0
2017-May-13 15:30S 29°53' E 031°01'0 0.0
2017-May-13 14:57S 29°53' E 031°01'0 0.0
2017-May-13 14:21S 29°53' E 031°01'0 0.0
2017-May-13 12:39S 29°53' E 031°01'0 0.0
2017-May-13 12:27S 29°53' E 031°01'0 0.0
2017-May-13 11:57S 29°53' E 031°01'0 0.0
2017-May-13 11:27S 29°53' E 031°01'0 0.0
2017-May-13 10:51S 29°53' E 031°01'0 0.0
2017-May-13 10:30S 29°53' E 031°01'0 0.0
2017-May-13 09:57S 29°53' E 031°01'0 0.0
2017-May-13 09:27S 29°53' E 031°01'0 0.0
2017-May-13 08:57S 29°53' E 031°01'0 0.0
2017-May-13 08:27S 29°53' E 031°01'0 0.0
2017-May-13 07:57S 29°53' E 031°01'0 0.0
2017-May-13 07:27S 29°53' E 031°01'0 0.0
2017-May-13 06:57S 29°53' E 031°01'0 0.0
2017-May-13 06:27S 29°53' E 031°01'0 0.0
2017-May-13 06:00S 29°53' E 031°01'0 0.0
2017-May-13 05:24S 29°53' E 031°01'0 0.0
2017-May-13 05:00S 29°53' E 031°01'0 0.0
2017-May-13 04:27S 29°53' E 031°01'0 0.0
2017-May-13 03:57S 29°53' E 031°01'0 0.0
2017-May-13 03:27S 29°53' E 031°01'0 0.0
2017-May-13 02:57S 29°53' E 031°01'0 0.0
2017-May-13 02:27S 29°53' E 031°01'0 0.0
2017-May-13 01:57S 29°53' E 031°01'0 0.0
2017-May-13 01:27S 29°53' E 031°01'0 0.0
2017-May-13 00:51S 29°53' E 031°01'0 0.0
2017-May-13 00:27S 29°53' E 031°01'0 0.0
2017-May-12 23:57S 29°53' E 031°01'0 0.0
2017-May-12 23:27S 29°53' E 031°01'0 0.0
2017-May-12 22:57S 29°53' E 031°01'0 0.0
2017-May-12 22:27S 29°53' E 031°01'0 0.0
2017-May-12 21:57S 29°53' E 031°01'0 0.0
2017-May-12 21:27S 29°53' E 031°01'0 0.0
2017-May-12 20:57S 29°53' E 031°01'0 0.0
2017-May-12 20:30S 29°53' E 031°01'0 0.0
2017-May-12 19:57S 29°53' E 031°01'0 0.0
2017-May-12 19:27S 29°53' E 031°01'0 0.0
2017-May-12 18:57S 29°53' E 031°01'0 0.0
2017-May-12 18:30S 29°53' E 031°01'0 0.0
2017-May-12 18:00S 29°53' E 031°01'0 0.0
2017-May-12 17:30S 29°53' E 031°01'0 0.0
2017-May-12 16:57S 29°53' E 031°01'0 0.0
2017-May-12 16:30S 29°53' E 031°01'0 0.0
2017-May-12 15:57S 29°53' E 031°01'0 0.0
2017-May-12 15:27S 29°53' E 031°01'0 0.0
2017-May-12 14:57S 29°53' E 031°01'0 0.0
2017-May-12 14:27S 29°53' E 031°01'0 0.0
2017-May-12 13:30S 29°53' E 031°01'0 0.0
2017-May-12 12:57S 29°53' E 031°01'0 0.0
2017-May-12 12:30S 29°53' E 031°01'0 0.0
2017-May-12 12:00S 29°53' E 031°01'0 0.0
2017-May-12 11:30S 29°53' E 031°01'0 0.0
2017-May-12 10:59S 29°53' E 031°01'0 0.0
2017-May-12 10:26S 29°53' E 031°01'0 0.0
2017-May-12 09:56S 29°53' E 031°01'0 0.0
2017-May-12 09:29S 29°53' E 031°01'0 0.0
2017-May-12 08:59S 29°53' E 031°01'0 0.0
2017-May-12 08:26S 29°53' E 031°01'0 0.0
2017-May-12 07:59S 29°53' E 031°01'0 0.0
2017-May-12 07:26S 29°53' E 031°01'0 0.0
2017-May-12 06:59S 29°53' E 031°01'0 0.0
2017-May-12 06:29S 29°53' E 031°01'0 0.0
2017-May-12 05:56S 29°53' E 031°01'0 0.0
2017-May-12 05:23S 29°53' E 031°01'0 0.0
2017-May-12 04:56S 29°53' E 031°01'0 0.0
2017-May-12 04:26S 29°53' E 031°01'0 0.0
2017-May-12 03:59S 29°53' E 031°01'0 0.0
2017-May-12 03:26S 29°53' E 031°01'0 0.0
2017-May-12 02:56S 29°53' E 031°01'0 0.0
2017-May-12 02:26S 29°53' E 031°01'0 0.0
2017-May-12 01:56S 29°53' E 031°01'0 0.0
2017-May-12 01:26S 29°53' E 031°01'0 0.0
2017-May-12 00:56S 29°53' E 031°01'0 1.0
2017-May-12 00:30S 29°53' E 031°02'1 1.1
2017-May-12 00:00S 29°52' E 031°02'3 6.2
2017-May-11 23:31S 29°50' E 031°05'4 7.1
2017-May-11 23:01S 29°48' E 031°08'3 5.6
2017-May-11 22:31S 29°48' E 031°11'1 2.4
2017-May-11 21:55S 29°47' E 031°13'2 4.4
2017-May-11 21:30S 29°46' E 031°14'2 3.3
2017-May-11 20:59S 29°46' E 031°16'1 2.1
2017-May-11 20:29S 29°47' E 031°16'1 1.8
2017-May-11 19:59S 29°48' E 031°16'1 1.6
2017-May-11 19:29S 29°49' E 031°16'1 1.4
2017-May-11 18:59S 29°49' E 031°15'1 1.1
2017-May-11 18:29S 29°50' E 031°15'0 0.9
2017-May-11 17:59S 29°50' E 031°15'0 1.0
2017-May-11 17:29S 29°51' E 031°15'0 1.0
2017-May-11 16:59S 29°51' E 031°16'1 1.0
2017-May-11 16:23S 29°52' E 031°16'0 0.6
2017-May-11 15:59S 29°52' E 031°16'  
Track history (hours):
 
Tides and Currents Weather Stations Pressure Air Temp Water Temp Dewpoint Dewpoint Depression Visibility Wind Speed Wind Dir Waves Ship Positions

MSC Rania

Last reported at 2017-May-21 15:40 UTC. Time now 2017-May-22 17:33 UTC.
Position S 33°45' E 018°15'.

Length 332 m; draft 12.3 m.

Type: Ship (hazmat cat A). MMSI: 371752000.

Date/timePositionNaut miles runAvg speedWind from/ knotsBaromVisibWave heightAir tempDewpointWater temp
2017-May-21 15:40S 33°45' E 018°15'421.5
2017-May-21 15:29S 33°48' E 018°17'815.9
2017-May-21 15:00S 33°52' E 018°26'3 3.0
2017-May-21 13:58S 33°55' E 018°27'0 0.0
2017-May-21 13:28S 33°55' E 018°27'0 0.0
2017-May-21 12:55S 33°55' E 018°27'0 0.0
2017-May-21 12:28S 33°55' E 018°27'0 0.0
2017-May-21 11:58S 33°55' E 018°27'0 0.0
2017-May-21 11:28S 33°55' E 018°27'0 0.0
2017-May-21 10:58S 33°55' E 018°27'0 0.0
2017-May-21 10:28S 33°55' E 018°27'0 0.0
2017-May-21 09:55S 33°55' E 018°27'0 0.0
2017-May-21 09:28S 33°55' E 018°27'0 0.0
2017-May-21 08:58S 33°55' E 018°27'0 0.0
2017-May-21 08:25S 33°55' E 018°27'0 0.0
2017-May-21 07:49S 33°55' E 018°27'0 0.0
2017-May-21 07:28S 33°55' E 018°27'0 0.0
2017-May-21 06:55S 33°55' E 018°27'0 0.1
2017-May-21 06:28S 33°55' E 018°27'0 0.0
2017-May-21 05:58S 33°55' E 018°27'0 0.0
2017-May-21 05:25S 33°55' E 018°27'0 0.0
2017-May-21 04:58S 33°55' E 018°27'0 0.0
2017-May-21 04:28S 33°55' E 018°27'0 0.0
2017-May-21 03:58S 33°55' E 018°27'0 0.0
2017-May-21 03:25S 33°55' E 018°27'0 0.0
2017-May-21 02:58S 33°55' E 018°27'0 0.0
2017-May-21 02:22S 33°55' E 018°27'0 0.0
2017-May-21 01:58S 33°55' E 018°27'0 0.0
2017-May-21 01:28S 33°55' E 018°27'0 0.0
2017-May-21 00:55S 33°55' E 018°27'0 0.0
2017-May-21 00:28S 33°55' E 018°27'0 0.0
2017-May-21 00:01S 33°55' E 018°27'0 0.0
2017-May-20 23:21S 33°55' E 018°27'0 0.0
2017-May-20 23:00S 33°55' E 018°27'0 0.0
2017-May-20 22:30S 33°55' E 018°27'0 0.0
2017-May-20 22:00S 33°55' E 018°27'0 0.0
2017-May-20 21:30S 33°55' E 018°27'0 0.0
2017-May-20 20:57S 33°55' E 018°27'0 0.0
2017-May-20 20:30S 33°55' E 018°27'0 0.0
2017-May-20 20:00S 33°55' E 018°27'0 0.0
2017-May-20 19:30S 33°55' E 018°27'0 0.0
2017-May-20 19:00S 33°55' E 018°27'0 0.0
2017-May-20 18:30S 33°55' E 018°27'0 0.0
2017-May-20 17:54S 33°55' E 018°27'0 0.0
2017-May-20 17:27S 33°55' E 018°27'0 0.0
2017-May-20 16:57S 33°55' E 018°27'0 0.0
2017-May-20 16:30S 33°55' E 018°27'1 1.9
2017-May-20 15:59S 33°54' E 018°26'2 4.8
2017-May-20 15:30S 33°52' E 018°24'4 8.0
2017-May-20 14:59S 33°54' E 018°20'  
2017-May-17 13:18S 30°22' E 030°59'620.8
2017-May-17 13:00S 30°16' E 031°02'1020.6
2017-May-17 12:30S 30°06' E 031°06'1019.6
2017-May-17 12:00S 29°56' E 031°07'510.6
2017-May-17 11:30S 29°52' E 031°04'3 5.0
2017-May-17 11:00S 29°53' E 031°01'0 0.0
2017-May-17 10:18S 29°53' E 031°01'0 0.0
2017-May-17 10:00S 29°53' E 031°01'0 0.0
2017-May-17 09:30S 29°53' E 031°01'0 0.0
2017-May-17 08:48S 29°53' E 031°01'0 0.0
2017-May-17 08:30S 29°53' E 031°01'0 0.0
2017-May-17 08:00S 29°53' E 031°01'0 0.0
2017-May-17 07:30S 29°53' E 031°01'0 0.0
2017-May-17 07:00S 29°53' E 031°01'0 0.0
2017-May-17 06:30S 29°53' E 031°01'0 0.0
2017-May-17 06:00S 29°53' E 031°01'0 0.0
2017-May-17 05:30S 29°53' E 031°01'0 0.0
2017-May-17 05:00S 29°53' E 031°01'0 0.0
2017-May-17 04:30S 29°53' E 031°01'0 0.0
2017-May-17 04:00S 29°53' E 031°01'0 0.0
2017-May-17 03:30S 29°53' E 031°01'0 0.0
2017-May-17 02:54S 29°53' E 031°01'0 0.0
2017-May-17 02:30S 29°53' E 031°01'0 0.0
2017-May-17 02:00S 29°53' E 031°01'0 0.0
2017-May-17 01:30S 29°53' E 031°01'0 0.0
2017-May-17 01:00S 29°53' E 031°01'0 0.0
2017-May-17 00:30S 29°53' E 031°01'0 0.0
2017-May-17 00:00S 29°53' E 031°01'0 0.0
2017-May-16 23:30S 29°53' E 031°01'0 0.0
2017-May-16 23:00S 29°53' E 031°01'0 0.0
2017-May-16 22:30S 29°53' E 031°01'0 0.0
2017-May-16 21:59S 29°53' E 031°01'0 0.0
2017-May-16 21:29S 29°53' E 031°01'0 0.0
2017-May-16 20:59S 29°53' E 031°01'0 0.0
2017-May-16 20:29S 29°53' E 031°01'0 0.0
2017-May-16 19:59S 29°53' E 031°01'0 0.0
2017-May-16 19:29S 29°53' E 031°01'0 0.0
2017-May-16 18:59S 29°53' E 031°01'0 0.0
2017-May-16 18:29S 29°53' E 031°01'0 0.0
2017-May-16 17:59S 29°53' E 031°01'0 0.0
2017-May-16 17:29S 29°53' E 031°01'0 0.0
2017-May-16 16:59S 29°53' E 031°01'0 0.0
2017-May-16 16:20S 29°53' E 031°01'0 0.0
2017-May-16 15:59S 29°53' E 031°01'0 0.0
2017-May-16 15:29S 29°53' E 031°01'0 0.0
2017-May-16 14:59S 29°53' E 031°01'0 0.0
2017-May-16 14:29S 29°53' E 031°01'0 0.0
2017-May-16 13:29S 29°53' E 031°01'0 0.0
2017-May-16 12:59S 29°53' E 031°01'0 0.0
2017-May-16 12:29S 29°53' E 031°01'0 0.0
2017-May-16 11:59S 29°53' E 031°01'0 0.0
2017-May-16 11:29S 29°53' E 031°01'0 0.0
2017-May-16 10:59S 29°53' E 031°01'0 0.0
2017-May-16 10:29S 29°53' E 031°01'0 0.0
2017-May-16 09:59S 29°53' E 031°01'0 0.0
2017-May-16 09:29S 29°53' E 031°01'0 0.0
2017-May-16 08:59S 29°53' E 031°01'0 0.0
2017-May-16 08:23S 29°53' E 031°01'0 0.0
2017-May-16 07:59S 29°53' E 031°01'0 0.0
2017-May-16 07:29S 29°53' E 031°01'0 0.0
2017-May-16 06:29S 29°53' E 031°01'0 0.0
2017-May-16 05:41S 29°53' E 031°01'0 0.0
2017-May-16 05:23S 29°53' E 031°01'0 0.0
2017-May-16 04:59S 29°53' E 031°01'0 0.0
2017-May-16 04:29S 29°53' E 031°01'0 0.0
2017-May-16 03:59S 29°53' E 031°01'0 0.0
2017-May-16 03:29S 29°53' E 031°01'0 0.0
2017-May-16 02:59S 29°53' E 031°01'0 0.0
2017-May-16 02:29S 29°53' E 031°01'0 0.0
2017-May-16 01:59S 29°53' E 031°01'0 0.0
2017-May-16 01:29S 29°53' E 031°01'0 0.0
2017-May-16 00:59S 29°53' E 031°01'0 0.0
2017-May-16 00:29S 29°53' E 031°01'0 0.0
2017-May-15 23:59S 29°53' E 031°01'0 0.0
2017-May-15 23:29S 29°53' E 031°01'0 0.0
2017-May-15 22:59S 29°53' E 031°01'0 0.0
2017-May-15 22:29S 29°53' E 031°01'0 0.0
2017-May-15 21:59S 29°53' E 031°01'0 0.0
2017-May-15 21:29S 29°53' E 031°01'0 0.0
2017-May-15 20:59S 29°53' E 031°01'0 0.0
2017-May-15 20:29S 29°53' E 031°01'0 0.0
2017-May-15 19:59S 29°53' E 031°01'0 0.0
2017-May-15 19:29S 29°53' E 031°01'0 0.0
2017-May-15 18:59S 29°53' E 031°01'0 0.0
2017-May-15 18:29S 29°53' E 031°01'0 0.0
2017-May-15 17:59S 29°53' E 031°01'0 0.0
2017-May-15 17:23S 29°53' E 031°01'0 0.0
2017-May-15 16:59S 29°53' E 031°01'0 0.0
2017-May-15 16:29S 29°53' E 031°01'0 0.0
2017-May-15 15:59S 29°53' E 031°01'0 0.0
2017-May-15 15:29S 29°53' E 031°01'0 0.0
2017-May-15 14:59S 29°53' E 031°01'0 0.0
2017-May-15 14:23S 29°53' E 031°01'0 0.0
2017-May-15 13:29S 29°53' E 031°01'0 0.0
2017-May-15 12:59S 29°53' E 031°01'0 0.0
2017-May-15 12:29S 29°53' E 031°01'0 0.0
2017-May-15 11:53S 29°53' E 031°01'0 0.0
2017-May-15 11:29S 29°53' E 031°01'0 0.0
2017-May-15 10:59S 29°53' E 031°01'0 0.0
2017-May-15 10:28S 29°53' E 031°01'0 0.0
2017-May-15 09:46S 29°53' E 031°01'0 0.0
2017-May-15 09:22S 29°53' E 031°01'0 0.0
2017-May-15 08:58S 29°53' E 031°01'0 0.0
2017-May-15 08:28S 29°53' E 031°01'0 0.0
2017-May-15 07:58S 29°53' E 031°01'0 0.0
2017-May-15 07:28S 29°53' E 031°01'0 0.0
2017-May-15 06:58S 29°53' E 031°01'0 0.0
2017-May-15 06:28S 29°53' E 031°01'0 0.0
2017-May-15 05:58S 29°53' E 031°01'0 0.0
2017-May-15 05:28S 29°53' E 031°01'0 0.0
2017-May-15 04:58S 29°53' E 031°01'0 0.0
2017-May-15 04:28S 29°53' E 031°01'0 0.0
2017-May-15 03:58S 29°53' E 031°01'0 0.0
2017-May-15 03:28S 29°53' E 031°01'0 0.0
2017-May-15 02:58S 29°53' E 031°01'0 0.0
2017-May-15 02:28S 29°53' E 031°01'0 0.0
2017-May-15 01:58S 29°53' E 031°01'0 0.0
2017-May-15 01:28S 29°53' E 031°01'0 0.0
2017-May-15 00:58S 29°53' E 031°01'0 0.0
2017-May-15 00:28S 29°53' E 031°01'0 0.0
2017-May-14 23:58S 29°53' E 031°01'0 0.0
2017-May-14 23:28S 29°53' E 031°01'0 0.0
2017-May-14 22:58S 29°53' E 031°01'0 0.0
2017-May-14 22:28S 29°53' E 031°01'0 0.0
2017-May-14 21:58S 29°53' E 031°01'0 0.0
2017-May-14 21:28S 29°53' E 031°01'0 0.0
2017-May-14 20:58S 29°53' E 031°01'0 0.0
2017-May-14 20:28S 29°53' E 031°01'0 0.0
2017-May-14 19:58S 29°53' E 031°01'0 0.0
2017-May-14 19:28S 29°53' E 031°01'0 0.0
2017-May-14 18:58S 29°53' E 031°01'0 0.0
2017-May-14 18:28S 29°53' E 031°01'0 0.0
2017-May-14 17:58S 29°53' E 031°01'0 0.0
2017-May-14 17:19S 29°53' E 031°01'0 0.0
2017-May-14 16:58S 29°53' E 031°01'0 0.0
2017-May-14 16:28S 29°53' E 031°01'0 0.0
2017-May-14 15:58S 29°53' E 031°01'0 0.0
2017-May-14 15:28S 29°53' E 031°01'0 0.0
2017-May-14 14:58S 29°53' E 031°01'0 0.0
2017-May-14 14:28S 29°53' E 031°01'0 0.0
2017-May-14 13:28S 29°53' E 031°01'0 0.0
2017-May-14 12:58S 29°53' E 031°01'0 0.0
2017-May-14 12:28S 29°53' E 031°01'0 0.0
2017-May-14 11:52S 29°53' E 031°01'0 0.0
2017-May-14 11:28S 29°53' E 031°01'0 0.0
2017-May-14 10:58S 29°53' E 031°01'0 0.0
2017-May-14 10:28S 29°53' E 031°01'0 0.0
2017-May-14 09:49S 29°53' E 031°01'0 0.0
2017-May-14 09:28S 29°53' E 031°01'0 0.0
2017-May-14 08:58S 29°53' E 031°01'0 0.0
2017-May-14 08:28S 29°53' E 031°01'0 0.0
2017-May-14 07:58S 29°53' E 031°01'0 0.0
2017-May-14 07:28S 29°53' E 031°01'0 0.0
2017-May-14 06:58S 29°53' E 031°01'0 0.0
2017-May-14 06:22S 29°53' E 031°01'0 0.0
2017-May-14 05:58S 29°53' E 031°01'0 0.0
2017-May-14 05:28S 29°53' E 031°01'0 0.0
2017-May-14 04:58S 29°53' E 031°01'0 0.0
2017-May-14 04:28S 29°53' E 031°01'0 0.0
2017-May-14 03:58S 29°53' E 031°01'0 0.0
2017-May-14 03:28S 29°53' E 031°01'0 0.0
2017-May-14 02:58S 29°53' E 031°01'0 0.0
2017-May-14 02:28S 29°53' E 031°01'0 0.0
2017-May-14 01:58S 29°53' E 031°01'0 0.0
2017-May-14 01:28S 29°53' E 031°01'0 0.0
2017-May-14 00:58S 29°53' E 031°01'0 0.0
2017-May-14 00:28S 29°53' E 031°01'0 0.0
2017-May-13 23:58S 29°53' E 031°01'0 0.0
2017-May-13 23:28S 29°53' E 031°01'0 0.0
2017-May-13 22:58S 29°53' E 031°01'0 0.0
2017-May-13 22:27S 29°53' E 031°01'0 0.0
2017-May-13 21:57S 29°53' E 031°01'0 0.0
2017-May-13 21:27S 29°53' E 031°01'0 0.0
2017-May-13 20:57S 29°53' E 031°01'0 0.0
2017-May-13 20:30S 29°53' E 031°01'0 0.0
2017-May-13 19:57S 29°53' E 031°01'0 0.0
2017-May-13 19:27S 29°53' E 031°01'0 0.0
2017-May-13 19:00S 29°53' E 031°01'0 0.0
2017-May-13 18:30S 29°53' E 031°01'0 0.0
2017-May-13 17:57S 29°53' E 031°01'0 0.0
2017-May-13 17:30S 29°53' E 031°01'0 0.0
2017-May-13 17:00S 29°53' E 031°01'0 0.0
2017-May-13 16:27S 29°53' E 031°01'0 0.0
2017-May-13 16:00S 29°53' E 031°01'0 0.0
2017-May-13 15:30S 29°53' E 031°01'0 0.0
2017-May-13 14:57S 29°53' E 031°01'0 0.0
2017-May-13 14:21S 29°53' E 031°01'0 0.0
2017-May-13 12:39S 29°53' E 031°01'0 0.0
2017-May-13 12:27S 29°53' E 031°01'0 0.0
2017-May-13 11:57S 29°53' E 031°01'0 0.0
2017-May-13 11:27S 29°53' E 031°01'0 0.0
2017-May-13 10:51S 29°53' E 031°01'0 0.0
2017-May-13 10:30S 29°53' E 031°01'0 0.0
2017-May-13 09:57S 29°53' E 031°01'0 0.0
2017-May-13 09:27S 29°53' E 031°01'0 0.0
2017-May-13 08:57S 29°53' E 031°01'0 0.0
2017-May-13 08:27S 29°53' E 031°01'0 0.0
2017-May-13 07:57S 29°53' E 031°01'0 0.0
2017-May-13 07:27S 29°53' E 031°01'0 0.0
2017-May-13 06:57S 29°53' E 031°01'0 0.0
2017-May-13 06:27S 29°53' E 031°01'0 0.0
2017-May-13 06:00S 29°53' E 031°01'0 0.0
2017-May-13 05:24S 29°53' E 031°01'0 0.0
2017-May-13 05:00S 29°53' E 031°01'0 0.0
2017-May-13 04:27S 29°53' E 031°01'0 0.0
2017-May-13 03:57S 29°53' E 031°01'0 0.0
2017-May-13 03:27S 29°53' E 031°01'0 0.0
2017-May-13 02:57S 29°53' E 031°01'0 0.0
2017-May-13 02:27S 29°53' E 031°01'0 0.0
2017-May-13 01:57S 29°53' E 031°01'0 0.0
2017-May-13 01:27S 29°53' E 031°01'0 0.0
2017-May-13 00:51S 29°53' E 031°01'0 0.0
2017-May-13 00:27S 29°53' E 031°01'0 0.0
2017-May-12 23:57S 29°53' E 031°01'0 0.0
2017-May-12 23:27S 29°53' E 031°01'0 0.0
2017-May-12 22:57S 29°53' E 031°01'0 0.0
2017-May-12 22:27S 29°53' E 031°01'0 0.0
2017-May-12 21:57S 29°53' E 031°01'0 0.0
2017-May-12 21:27S 29°53' E 031°01'0 0.0
2017-May-12 20:57S 29°53' E 031°01'0 0.0
2017-May-12 20:30S 29°53' E 031°01'0 0.0
2017-May-12 19:57S 29°53' E 031°01'0 0.0
2017-May-12 19:27S 29°53' E 031°01'0 0.0
2017-May-12 18:57S 29°53' E 031°01'0 0.0
2017-May-12 18:30S 29°53' E 031°01'0 0.0
2017-May-12 18:00S 29°53' E 031°01'0 0.0
2017-May-12 17:30S 29°53' E 031°01'0 0.0
2017-May-12 16:57S 29°53' E 031°01'0 0.0
2017-May-12 16:30S 29°53' E 031°01'0 0.0
2017-May-12 15:57S 29°53' E 031°01'0 0.0
2017-May-12 15:27S 29°53' E 031°01'0 0.0
2017-May-12 14:57S 29°53' E 031°01'0 0.0
2017-May-12 14:27S 29°53' E 031°01'0 0.0
2017-May-12 13:30S 29°53' E 031°01'0 0.0
2017-May-12 12:57S 29°53' E 031°01'0 0.0
2017-May-12 12:30S 29°53' E 031°01'0 0.0
2017-May-12 12:00S 29°53' E 031°01'0 0.0
2017-May-12 11:30S 29°53' E 031°01'0 0.0
2017-May-12 10:59S 29°53' E 031°01'0 0.0
2017-May-12 10:26S 29°53' E 031°01'0 0.0
2017-May-12 09:56S 29°53' E 031°01'0 0.0
2017-May-12 09:29S 29°53' E 031°01'0 0.0
2017-May-12 08:59S 29°53' E 031°01'0 0.0
2017-May-12 08:26S 29°53' E 031°01'0 0.0
2017-May-12 07:59S 29°53' E 031°01'0 0.0
2017-May-12 07:26S 29°53' E 031°01'0 0.0
2017-May-12 06:59S 29°53' E 031°01'0 0.0
2017-May-12 06:29S 29°53' E 031°01'0 0.0
2017-May-12 05:56S 29°53' E 031°01'0 0.0
2017-May-12 05:23S 29°53' E 031°01'0 0.0
2017-May-12 04:56S 29°53' E 031°01'0 0.0
2017-May-12 04:26S 29°53' E 031°01'0 0.0
2017-May-12 03:59S 29°53' E 031°01'0 0.0
2017-May-12 03:26S 29°53' E 031°01'0 0.0
2017-May-12 02:56S 29°53' E 031°01'0 0.0
2017-May-12 02:26S 29°53' E 031°01'0 0.0
2017-May-12 01:56S 29°53' E 031°01'0 0.0
2017-May-12 01:26S 29°53' E 031°01'0 0.0
2017-May-12 00:56S 29°53' E 031°01'0 1.0
2017-May-12 00:30S 29°53' E 031°02'1 1.1
2017-May-12 00:00S 29°52' E 031°02'3 6.2
2017-May-11 23:31S 29°50' E 031°05'4 7.1
2017-May-11 23:01S 29°48' E 031°08'3 5.6
2017-May-11 22:31S 29°48' E 031°11'1 2.4
2017-May-11 21:55S 29°47' E 031°13'2 4.4
2017-May-11 21:30S 29°46' E 031°14'2 3.3
2017-May-11 20:59S 29°46' E 031°16'1 2.1
2017-May-11 20:29S 29°47' E 031°16'1 1.8
2017-May-11 19:59S 29°48' E 031°16'1 1.6
2017-May-11 19:29S 29°49' E 031°16'1 1.4
2017-May-11 18:59S 29°49' E 031°15'1 1.1
2017-May-11 18:29S 29°50' E 031°15'0 0.9
2017-May-11 17:59S 29°50' E 031°15'0 1.0
2017-May-11 17:29S 29°51' E 031°15'0 1.0
2017-May-11 16:59S 29°51' E 031°16'1 1.0
2017-May-11 16:23S 29°52' E 031°16'0 0.6
2017-May-11 15:59S 29°52' E 031°16'  

Dump ship's entire track history